createdAt,value
2023-05-14T00:02:17.230Z,17.98
2023-05-14T00:04:46.807Z,16.73
2023-05-14T00:07:16.884Z,16.63
2023-05-14T00:09:46.542Z,17.17
2023-05-14T00:14:50.669Z,18.23
2023-05-14T00:17:22.851Z,20.55
2023-05-14T00:19:52.444Z,17.42
2023-05-14T00:22:21.980Z,20.08
2023-05-14T00:24:51.541Z,18.33
2023-05-14T00:27:21.017Z,18.88
2023-05-14T00:29:50.812Z,17.20
2023-05-14T00:32:23.021Z,15.82
2023-05-14T00:34:52.677Z,17.35
2023-05-14T00:37:22.257Z,18.15
2023-05-14T00:39:51.875Z,17.67
2023-05-14T00:42:21.370Z,16.92
2023-05-14T00:44:50.947Z,20.17
2023-05-14T00:47:23.461Z,16.80
2023-05-14T00:49:53.107Z,16.92
2023-05-14T00:52:23.473Z,16.50
2023-05-14T00:54:53.639Z,17.65
2023-05-14T00:57:23.285Z,19.35
2023-05-14T00:59:53.238Z,16.25
2023-05-14T01:02:25.509Z,19.35
2023-05-14T01:04:55.270Z,17.58
2023-05-14T01:07:33.841Z,17.92
2023-05-14T01:10:09.071Z,14.30
2023-05-14T01:12:45.805Z,14.18
2023-05-14T01:15:21.801Z,14.13
2023-05-14T01:17:57.454Z,14.40
2023-05-14T01:20:27.160Z,13.63
2023-05-14T01:22:59.264Z,16.08
2023-05-14T01:25:30.366Z,14.35
2023-05-14T01:28:05.771Z,15.27
2023-05-14T01:30:38.641Z,15.18
2023-05-14T01:33:12.817Z,16.30
2023-05-14T01:35:43.062Z,14.90
2023-05-14T01:38:17.667Z,17.88
2023-05-14T01:40:49.104Z,17.63
2023-05-14T01:43:19.696Z,13.52
2023-05-14T01:45:49.546Z,13.05
2023-05-14T01:48:19.100Z,14.00
2023-05-14T01:50:48.867Z,14.52
2023-05-14T01:53:20.969Z,15.05
2023-05-14T01:55:52.391Z,13.65
2023-05-14T01:58:21.944Z,14.23
2023-05-14T02:00:51.487Z,15.00
2023-05-14T02:03:21.794Z,13.93
2023-05-14T02:05:51.313Z,13.95
2023-05-14T02:08:23.471Z,12.70
2023-05-14T02:10:53.027Z,15.25
2023-05-14T02:13:22.662Z,13.45
2023-05-14T02:15:52.700Z,13.40
2023-05-14T02:18:22.280Z,21.48
2023-05-14T02:20:51.800Z,15.48
2023-05-14T02:23:34.158Z,13.05
2023-05-14T02:26:11.868Z,11.73
2023-05-14T02:28:41.373Z,14.32
2023-05-14T02:31:10.952Z,14.55
2023-05-14T02:33:40.640Z,18.63
2023-05-14T02:36:10.610Z,13.90
2023-05-14T02:38:42.732Z,13.23
2023-05-14T02:41:12.249Z,15.70
2023-05-14T02:43:41.762Z,13.85
2023-05-14T02:46:11.296Z,13.10
2023-05-14T02:48:41.106Z,14.70
2023-05-14T02:51:10.857Z,13.68
2023-05-14T02:53:43.020Z,15.77
2023-05-14T02:56:12.527Z,15.63
2023-05-14T02:58:42.067Z,15.32
2023-05-14T03:01:11.670Z,16.50
2023-05-14T03:03:41.734Z,15.73
2023-05-14T03:06:12.223Z,13.43
2023-05-14T03:08:44.479Z,15.18
2023-05-14T03:11:14.041Z,15.80
2023-05-14T03:13:43.590Z,14.95
2023-05-14T03:16:13.592Z,15.43
2023-05-14T03:18:43.240Z,15.77
2023-05-14T03:21:13.152Z,13.32
2023-05-14T03:23:45.286Z,14.30
2023-05-14T03:26:14.791Z,13.60
2023-05-14T03:28:44.310Z,16.15
2023-05-14T03:33:48.623Z,14.30
2023-05-14T03:36:18.148Z,15.35
2023-05-14T03:38:50.331Z,17.33
2023-05-14T03:41:20.621Z,14.43
2023-05-14T03:43:50.200Z,15.45
2023-05-14T03:46:19.784Z,12.82
2023-05-14T03:48:49.358Z,15.57
2023-05-14T03:51:18.899Z,13.80
2023-05-14T03:53:50.992Z,15.20
2023-05-14T03:56:20.828Z,15.07
2023-05-14T03:58:50.366Z,15.10
2023-05-14T04:01:20.084Z,13.35
2023-05-14T04:03:49.734Z,15.25
2023-05-14T04:06:19.365Z,13.48
2023-05-14T04:08:51.502Z,17.27
2023-05-14T04:11:21.505Z,14.27
2023-05-14T04:13:51.015Z,15.00
2023-05-14T04:16:20.601Z,15.93
2023-05-14T04:18:50.174Z,15.18
2023-05-14T04:21:19.716Z,13.70
2023-05-14T04:23:51.852Z,15.45
2023-05-14T04:26:21.603Z,13.32
2023-05-14T04:28:51.178Z,14.32
2023-05-14T04:31:20.728Z,12.82
2023-05-14T04:33:50.291Z,12.95
2023-05-14T04:36:19.827Z,15.35
2023-05-14T04:38:52.154Z,14.35
2023-05-14T04:41:21.757Z,17.23
2023-05-14T04:43:52.836Z,15.65
2023-05-14T04:46:22.483Z,15.00
2023-05-14T04:48:52.125Z,14.77
2023-05-14T04:51:21.698Z,13.52
2023-05-14T04:53:53.958Z,15.43
2023-05-14T04:56:23.560Z,14.20
2023-05-14T04:58:53.085Z,13.57
2023-05-14T05:01:23.632Z,16.38
2023-05-14T05:03:53.271Z,11.07
2023-05-14T05:06:22.879Z,12.27
2023-05-14T05:08:54.970Z,13.25
2023-05-14T05:11:24.513Z,14.70
2023-05-14T05:13:54.080Z,14.20
2023-05-14T05:16:23.670Z,15.52
2023-05-14T05:18:53.530Z,12.50
2023-05-14T05:21:23.245Z,13.05
2023-05-14T05:23:55.383Z,12.82
2023-05-14T05:26:25.053Z,14.45
2023-05-14T05:28:54.577Z,10.95
2023-05-14T05:31:24.223Z,13.63
2023-05-14T05:33:53.801Z,14.85
2023-05-14T05:36:23.312Z,10.93
2023-05-14T05:38:55.627Z,12.85
2023-05-14T05:41:25.174Z,11.45
2023-05-14T05:43:54.734Z,11.38
2023-05-14T05:46:24.307Z,11.63
2023-05-14T05:48:53.836Z,10.88
2023-05-14T05:51:23.387Z,13.00
2023-05-14T05:53:55.565Z,12.77
2023-05-14T05:56:25.088Z,11.55
2023-05-14T05:58:54.628Z,12.45
2023-05-14T06:01:24.187Z,12.07
2023-05-14T06:03:53.739Z,13.23
2023-05-14T06:06:23.281Z,12.77
2023-05-14T06:08:55.422Z,12.68
2023-05-14T06:11:24.983Z,15.13
2023-05-14T06:13:54.494Z,11.98
2023-05-14T06:16:24.035Z,10.60
2023-05-14T06:18:55.580Z,11.75
2023-05-14T06:21:25.241Z,14.18
2023-05-14T06:23:57.311Z,11.30
2023-05-14T06:26:26.837Z,14.13
2023-05-14T06:28:56.321Z,12.40
2023-05-14T06:31:26.510Z,11.32
2023-05-14T06:33:56.095Z,10.43
2023-05-14T06:36:25.627Z,10.85
2023-05-14T06:38:57.774Z,10.15
2023-05-14T06:41:27.287Z,12.57
2023-05-14T06:43:56.823Z,11.50
2023-05-14T06:46:26.518Z,12.05
2023-05-14T06:48:58.106Z,11.13
2023-05-14T06:51:28.912Z,12.48
2023-05-14T06:54:01.175Z,10.23
2023-05-14T06:56:30.862Z,11.00
2023-05-14T06:59:00.403Z,9.77
2023-05-14T07:01:30.642Z,9.63
2023-05-14T07:04:00.352Z,9.55
2023-05-14T07:06:30.024Z,8.05
2023-05-14T07:09:02.242Z,11.25
2023-05-14T07:11:31.780Z,7.85
2023-05-14T07:14:01.297Z,9.02
2023-05-14T07:16:31.067Z,5.70
2023-05-14T07:19:00.701Z,6.97
2023-05-14T07:21:30.250Z,7.55
2023-05-14T07:24:02.385Z,5.57
2023-05-14T07:26:32.033Z,6.55
2023-05-14T07:29:01.535Z,6.97
2023-05-14T07:31:31.130Z,6.45
2023-05-14T07:34:00.896Z,3.95
2023-05-14T07:36:31.036Z,6.00
2023-05-14T07:39:03.390Z,6.35
2023-05-14T07:41:32.877Z,6.53
2023-05-14T07:44:02.508Z,5.20
2023-05-14T07:46:32.070Z,5.38
2023-05-14T07:49:01.549Z,5.60
2023-05-14T07:51:33.515Z,6.00
2023-05-14T07:54:05.859Z,4.35
2023-05-14T07:56:35.379Z,6.70
2023-05-14T07:59:04.872Z,6.43
2023-05-14T08:01:34.376Z,5.25
2023-05-14T08:04:03.929Z,5.75
2023-05-14T08:06:33.422Z,5.05
2023-05-14T08:09:05.916Z,9.85
2023-05-14T08:11:35.439Z,7.10
2023-05-14T08:14:04.963Z,6.40
2023-05-14T08:16:34.644Z,5.65
2023-05-14T08:19:04.279Z,4.97
2023-05-14T08:21:33.900Z,3.92
2023-05-14T08:24:06.205Z,5.03
2023-05-14T08:26:36.067Z,5.32
2023-05-14T08:29:05.641Z,4.75
2023-05-14T08:31:35.195Z,5.30
2023-05-14T08:34:04.819Z,5.15
2023-05-14T08:36:34.477Z,6.47
2023-05-14T08:39:07.881Z,5.53
2023-05-14T08:41:37.803Z,5.53
2023-05-14T08:44:11.688Z,6.47
2023-05-14T08:46:42.299Z,5.30
2023-05-14T08:49:20.486Z,4.95
2023-05-14T08:51:50.910Z,5.13
2023-05-14T08:54:24.853Z,5.35
2023-05-14T08:56:55.356Z,5.07
2023-05-14T08:59:24.905Z,4.97
2023-05-14T09:01:56.093Z,3.50
2023-05-14T09:04:27.279Z,4.25
2023-05-14T09:06:58.302Z,4.80
2023-05-14T09:09:30.868Z,4.20
2023-05-14T09:12:00.533Z,3.70
2023-05-14T09:14:30.010Z,3.28
2023-05-14T09:16:59.531Z,3.85
2023-05-14T09:19:29.353Z,3.90
2023-05-14T09:22:00.654Z,4.30
2023-05-14T09:24:33.012Z,4.20
2023-05-14T09:27:02.548Z,4.20
2023-05-14T09:29:32.771Z,4.70
2023-05-14T09:32:05.545Z,4.28
2023-05-14T09:34:38.025Z,4.70
2023-05-14T09:37:09.298Z,5.57
2023-05-14T09:39:41.783Z,4.82
2023-05-14T09:42:11.318Z,4.53
2023-05-14T09:44:40.925Z,3.33
2023-05-14T09:47:11.004Z,4.90
2023-05-14T09:49:40.631Z,4.55
2023-05-14T09:52:10.390Z,3.78
2023-05-14T09:54:43.061Z,4.88
2023-05-14T09:57:12.690Z,5.88
2023-05-14T09:59:44.594Z,5.15
2023-05-14T10:02:22.660Z,4.82
2023-05-14T10:04:53.145Z,5.72
2023-05-14T10:07:26.296Z,5.78
2023-05-14T10:10:02.497Z,10.07
2023-05-14T10:12:35.486Z,5.15
2023-05-14T10:15:09.875Z,7.22
2023-05-14T10:17:44.001Z,4.07
2023-05-14T10:20:17.775Z,4.47
2023-05-14T10:22:47.490Z,5.28
2023-05-14T10:25:19.806Z,4.95
2023-05-14T10:27:49.722Z,5.60
2023-05-14T10:30:19.327Z,4.18
2023-05-14T10:32:48.941Z,4.28
2023-05-14T10:35:20.895Z,5.10
2023-05-14T10:37:53.547Z,4.95
2023-05-14T10:40:27.290Z,4.20
2023-05-14T10:43:01.981Z,4.47
2023-05-14T10:45:34.373Z,4.53
2023-05-14T10:48:03.954Z,5.93
2023-05-14T10:50:33.544Z,3.40
2023-05-14T10:53:03.872Z,4.13
2023-05-14T10:55:36.298Z,4.57
2023-05-14T10:58:07.861Z,5.85
2023-05-14T11:00:38.483Z,3.38
2023-05-14T11:03:09.691Z,8.32
2023-05-14T11:05:41.297Z,4.15
2023-05-14T11:08:11.915Z,4.38
2023-05-14T11:10:47.058Z,4.47
2023-05-14T11:13:18.962Z,5.65
2023-05-14T11:15:49.897Z,4.80
2023-05-14T11:18:29.621Z,4.38
2023-05-14T11:21:02.089Z,4.45
2023-05-14T11:23:32.733Z,3.97
2023-05-14T11:26:05.092Z,4.43
2023-05-14T11:28:34.745Z,5.75
2023-05-14T11:31:05.786Z,4.85
2023-05-14T11:33:35.295Z,4.63
2023-05-14T11:36:05.293Z,4.28
2023-05-14T11:38:34.880Z,5.20
2023-05-14T11:41:07.188Z,3.53
2023-05-14T11:43:39.189Z,5.57
2023-05-14T11:46:08.825Z,6.40
2023-05-14T11:48:38.370Z,4.97
2023-05-14T11:51:07.922Z,5.88
2023-05-14T11:53:37.617Z,4.38
2023-05-14T11:56:10.186Z,5.25
2023-05-14T11:58:39.830Z,4.45
2023-05-14T12:01:09.507Z,6.72
2023-05-14T12:03:39.562Z,4.90
2023-05-14T12:06:10.225Z,5.40
2023-05-14T12:08:40.171Z,5.22
2023-05-14T12:11:12.324Z,4.10
2023-05-14T12:13:42.542Z,5.07
2023-05-14T12:16:12.354Z,5.35
2023-05-14T12:18:43.162Z,5.82
2023-05-14T12:21:12.879Z,4.63
2023-05-14T12:23:42.765Z,5.35
2023-05-14T12:26:15.453Z,5.05
2023-05-14T12:28:45.531Z,4.63
2023-05-14T12:31:15.416Z,5.15
2023-05-14T12:33:45.330Z,5.18
2023-05-14T12:38:49.831Z,6.73
2023-05-14T12:41:22.070Z,6.00
2023-05-14T12:43:52.138Z,5.45
2023-05-14T12:46:22.245Z,6.05
2023-05-14T12:48:53.330Z,2.13
2023-05-14T12:51:23.496Z,4.97
2023-05-14T12:53:54.350Z,5.75
2023-05-14T12:56:28.566Z,5.55
2023-05-14T12:58:58.918Z,5.07
2023-05-14T13:01:28.547Z,5.53
2023-05-14T13:03:58.972Z,5.55
2023-05-14T13:06:28.724Z,8.23
2023-05-14T13:09:00.367Z,5.63
2023-05-14T13:11:32.590Z,5.82
2023-05-14T13:14:02.194Z,4.97
2023-05-14T13:16:32.353Z,5.85
2023-05-14T13:19:02.031Z,7.75
2023-05-14T13:21:31.852Z,6.80
2023-05-14T13:24:01.421Z,8.73
2023-05-14T13:26:33.593Z,8.50
2023-05-14T13:29:03.179Z,6.85
2023-05-14T13:31:32.835Z,9.35
2023-05-14T13:34:02.819Z,5.70
2023-05-14T13:36:33.017Z,8.88
2023-05-14T13:39:04.312Z,6.95
2023-05-14T13:41:38.004Z,6.53
2023-05-14T13:44:08.174Z,14.63
2023-05-14T13:46:38.371Z,5.13
2023-05-14T13:49:07.967Z,6.65
2023-05-14T13:51:37.587Z,4.82
2023-05-14T13:54:07.588Z,9.63
2023-05-14T13:56:39.816Z,6.68
2023-05-14T13:59:10.268Z,8.18
2023-05-14T14:01:39.935Z,5.60
2023-05-14T14:04:09.496Z,6.05
2023-05-14T14:06:39.129Z,6.88
2023-05-14T14:09:10.027Z,8.30
2023-05-14T14:11:42.301Z,6.65
2023-05-14T14:14:11.899Z,7.13
2023-05-14T14:16:41.885Z,6.88
2023-05-14T14:19:11.589Z,8.20
2023-05-14T14:21:43.038Z,7.40
2023-05-14T14:24:12.640Z,6.15
2023-05-14T14:26:44.747Z,9.38
2023-05-14T14:29:14.570Z,6.25
2023-05-14T14:31:44.605Z,9.68
2023-05-14T14:34:15.314Z,7.50
2023-05-14T14:36:44.857Z,7.28
2023-05-14T14:39:14.403Z,8.50
2023-05-14T14:41:47.843Z,7.47
2023-05-14T14:44:17.403Z,7.60
2023-05-14T14:46:47.016Z,8.48
2023-05-14T14:49:16.564Z,8.80
2023-05-14T14:51:47.119Z,6.18
2023-05-14T14:54:16.710Z,7.97
2023-05-14T14:56:49.481Z,6.15
2023-05-14T14:59:19.051Z,8.57
2023-05-14T15:01:48.727Z,8.25
2023-05-14T15:04:18.470Z,7.28
2023-05-14T15:06:48.017Z,7.82
2023-05-14T15:09:17.571Z,6.70
2023-05-14T15:11:49.726Z,10.23
2023-05-14T15:14:19.281Z,6.57
2023-05-14T15:16:50.352Z,7.10
2023-05-14T15:19:20.674Z,7.05
2023-05-14T15:21:50.285Z,6.45
2023-05-14T15:24:19.838Z,7.38
2023-05-14T15:26:53.382Z,7.18
2023-05-14T15:29:23.400Z,9.45
2023-05-14T15:31:53.016Z,6.68
2023-05-14T15:34:22.655Z,7.05
2023-05-14T15:36:52.173Z,7.00
2023-05-14T15:39:21.666Z,7.57
2023-05-14T15:41:53.783Z,9.75
2023-05-14T15:44:23.438Z,8.13
2023-05-14T15:46:53.065Z,6.43
2023-05-14T15:49:22.680Z,8.10
2023-05-14T15:51:52.253Z,8.98
2023-05-14T15:54:21.898Z,7.93
2023-05-14T15:56:54.028Z,6.22
2023-05-14T15:59:24.771Z,11.13
2023-05-14T16:01:54.343Z,8.85
2023-05-14T16:04:23.877Z,10.90
2023-05-14T16:06:54.186Z,6.95
2023-05-14T16:09:23.837Z,8.15
2023-05-14T16:11:55.948Z,5.93
2023-05-14T16:14:25.527Z,8.18
2023-05-14T16:16:56.413Z,9.18
2023-05-14T16:19:26.171Z,8.32
2023-05-14T16:21:55.759Z,11.32
2023-05-14T16:24:25.302Z,10.57
2023-05-14T16:26:57.942Z,8.40
2023-05-14T16:29:27.871Z,6.20
2023-05-14T16:31:58.675Z,10.23
2023-05-14T16:34:28.324Z,9.73
2023-05-14T16:36:57.917Z,9.23
2023-05-14T16:39:27.455Z,9.07
2023-05-14T16:41:59.616Z,8.00
2023-05-14T16:44:29.151Z,9.77
2023-05-14T16:46:59.210Z,9.43
2023-05-14T16:49:28.854Z,10.38
2023-05-14T16:51:58.357Z,9.20
2023-05-14T16:54:27.904Z,9.52
2023-05-14T16:56:59.995Z,10.13
2023-05-14T16:59:29.551Z,8.68
2023-05-14T17:01:59.113Z,9.95
2023-05-14T17:04:28.762Z,11.95
2023-05-14T17:06:59.216Z,21.65
2023-05-14T17:09:28.726Z,23.70
2023-05-14T17:12:00.865Z,27.10
2023-05-14T17:14:30.459Z,24.50
2023-05-14T17:17:00.033Z,11.63
2023-05-14T17:19:29.608Z,14.43
2023-05-14T17:21:59.219Z,14.35
2023-05-14T17:24:28.752Z,17.58
2023-05-14T17:27:00.977Z,11.57
2023-05-14T17:29:30.852Z,11.27
2023-05-14T17:32:00.737Z,9.63
2023-05-14T17:34:30.660Z,12.02
2023-05-14T17:37:01.019Z,13.52
2023-05-14T17:39:30.659Z,14.55
2023-05-14T17:42:03.793Z,10.95
2023-05-14T17:44:33.306Z,11.38
2023-05-14T17:47:03.353Z,15.05
2023-05-14T17:49:32.995Z,10.77
2023-05-14T17:52:02.746Z,10.70
2023-05-14T17:54:32.454Z,14.00
2023-05-14T17:57:04.697Z,14.73
2023-05-14T17:59:34.196Z,14.00
2023-05-14T18:02:05.756Z,10.63
2023-05-14T18:04:35.257Z,11.98
2023-05-14T18:07:04.867Z,13.40
2023-05-14T18:09:34.414Z,16.55
2023-05-14T18:12:06.826Z,15.82
2023-05-14T18:14:36.388Z,12.85
2023-05-14T18:17:06.086Z,15.85
2023-05-14T18:19:35.635Z,11.30
2023-05-14T18:22:05.228Z,16.52
2023-05-14T18:24:34.800Z,11.07
2023-05-14T18:27:07.301Z,11.35
2023-05-14T18:29:36.847Z,12.70
2023-05-14T18:32:06.571Z,15.70
2023-05-14T18:34:36.122Z,12.57
2023-05-14T18:37:05.667Z,12.65
2023-05-14T18:39:35.227Z,13.07
2023-05-14T18:42:07.737Z,13.98
2023-05-14T18:44:39.567Z,13.98
2023-05-14T18:47:09.864Z,23.13
2023-05-14T18:49:40.402Z,18.10
2023-05-14T18:52:10.082Z,15.60
2023-05-14T18:54:39.693Z,21.60
2023-05-14T18:57:13.698Z,17.80
2023-05-14T18:59:43.241Z,16.45
2023-05-14T19:02:12.789Z,15.65
2023-05-14T19:04:51.770Z,19.20
2023-05-14T19:07:22.660Z,18.70
2023-05-14T19:09:52.206Z,16.65
2023-05-14T19:12:24.366Z,19.55
2023-05-14T19:14:53.913Z,15.18
2023-05-14T19:17:23.471Z,16.35
2023-05-14T19:19:53.509Z,22.23
2023-05-14T19:22:23.073Z,19.92
2023-05-14T19:24:52.675Z,18.17
2023-05-14T19:27:24.841Z,26.23
2023-05-14T19:29:54.381Z,21.98
2023-05-14T19:32:23.924Z,22.05
2023-05-14T19:34:53.442Z,28.67
2023-05-14T19:37:23.053Z,22.42
2023-05-14T19:39:52.569Z,18.73
2023-05-14T19:42:24.973Z,16.00
2023-05-14T19:44:54.573Z,21.38
2023-05-14T19:47:24.231Z,18.20
2023-05-14T19:49:53.818Z,16.23
2023-05-14T19:52:23.472Z,15.65
2023-05-14T19:54:53.078Z,10.02
2023-05-14T19:57:25.210Z,10.10
2023-05-14T19:59:54.803Z,11.50
2023-05-14T20:02:24.517Z,12.27
2023-05-14T20:04:55.630Z,11.02
2023-05-14T20:07:26.087Z,11.30
2023-05-14T20:09:55.763Z,10.85
2023-05-14T20:12:30.748Z,12.18
2023-05-14T20:15:00.300Z,12.95
2023-05-14T20:17:29.870Z,11.13
2023-05-14T20:19:59.418Z,14.77
2023-05-14T20:22:28.948Z,12.25
2023-05-14T20:25:00.539Z,12.15
2023-05-14T20:27:32.949Z,12.77
2023-05-14T20:30:02.558Z,14.20
2023-05-14T20:32:32.131Z,14.75
2023-05-14T20:35:02.349Z,13.88
2023-05-14T20:37:32.783Z,13.95
2023-05-14T20:40:06.189Z,14.82
2023-05-14T20:42:38.422Z,12.30
2023-05-14T20:45:09.485Z,13.70
2023-05-14T20:47:39.304Z,13.38
2023-05-14T20:50:10.289Z,13.35
2023-05-14T20:52:39.823Z,13.73
2023-05-14T20:55:10.421Z,15.35
2023-05-14T20:57:43.581Z,12.73
2023-05-14T21:00:15.176Z,14.68
2023-05-14T21:02:44.771Z,15.13
2023-05-14T21:05:14.713Z,18.10
2023-05-14T21:07:44.250Z,14.07
2023-05-14T21:10:14.337Z,13.65
2023-05-14T21:12:46.472Z,15.45
2023-05-14T21:15:15.970Z,14.32
2023-05-14T21:17:46.070Z,15.68
2023-05-14T21:20:16.018Z,14.73
2023-05-14T21:22:45.925Z,20.95
2023-05-14T21:25:16.234Z,16.27
2023-05-14T21:27:48.422Z,15.27
2023-05-14T21:30:18.536Z,16.02
2023-05-14T21:32:48.071Z,19.50
2023-05-14T21:35:17.817Z,17.08
2023-05-14T21:37:47.389Z,20.55
2023-05-14T21:40:16.922Z,16.88
2023-05-14T21:42:49.047Z,16.90
2023-05-14T21:45:18.706Z,17.92
2023-05-14T21:47:48.383Z,18.17
2023-05-14T21:50:18.004Z,20.13
2023-05-14T21:52:47.527Z,21.10
2023-05-14T21:55:17.168Z,22.08
2023-05-14T21:57:49.313Z,22.55
2023-05-14T22:00:23.515Z,22.25
2023-05-14T22:02:53.805Z,19.13
2023-05-14T22:05:24.047Z,20.70
2023-05-14T22:07:54.282Z,23.23
2023-05-14T22:10:23.876Z,19.33
2023-05-14T22:12:56.010Z,21.15
2023-05-14T22:15:25.750Z,23.15
2023-05-14T22:17:56.098Z,22.83
2023-05-14T22:20:25.900Z,23.13
2023-05-14T22:22:55.486Z,24.33
2023-05-14T22:25:25.175Z,25.50
2023-05-14T22:27:57.710Z,24.92
2023-05-14T22:30:27.313Z,25.35
2023-05-14T22:32:56.887Z,24.98
2023-05-14T22:35:26.483Z,24.85
2023-05-14T22:37:56.201Z,24.02
2023-05-14T22:40:25.952Z,23.75
2023-05-14T22:42:58.114Z,21.55
2023-05-14T22:45:27.752Z,25.73
2023-05-14T22:47:57.323Z,26.13
2023-05-14T22:50:27.010Z,26.10
2023-05-14T22:52:56.531Z,25.58
2023-05-14T22:55:26.418Z,29.85
2023-05-14T22:57:59.279Z,27.83
2023-05-14T23:00:28.886Z,23.60
2023-05-14T23:02:58.512Z,23.77
2023-05-14T23:05:28.125Z,21.27
2023-05-14T23:07:57.800Z,23.95
2023-05-14T23:10:27.333Z,22.27
2023-05-14T23:12:59.493Z,28.33
2023-05-14T23:15:29.731Z,27.88
2023-05-14T23:17:59.435Z,26.92
2023-05-14T23:20:29.051Z,27.30
2023-05-14T23:22:58.588Z,27.58
2023-05-14T23:25:28.129Z,23.40
2023-05-14T23:28:00.352Z,23.65
2023-05-14T23:30:29.881Z,22.73
2023-05-14T23:32:59.542Z,26.83
2023-05-14T23:35:29.213Z,24.70
2023-05-14T23:37:58.768Z,26.00
2023-05-14T23:40:28.382Z,28.08
2023-05-14T23:43:00.666Z,24.25
2023-05-14T23:45:30.346Z,25.27
2023-05-14T23:48:01.369Z,24.60
2023-05-14T23:50:31.278Z,27.13
2023-05-14T23:53:00.891Z,28.25
2023-05-14T23:55:30.522Z,25.02
2023-05-14T23:58:02.792Z,24.98
